Time;durP1;ratioP1;P1;durP2;ratioP2;P2;SDS_P1;SDS_P2;PMS_P1;PMS_P2;Temp;Humidity;BMP_temperature;BMP_pressure;BME280_temperature;BME280_humidity;BME280_pressure;Samples;Min_cycle;Max_cycle;Signal;HPM_P1;HPM_P2
2022/09/06 00:01:38;;;;;;;5.43;5.03;;;;;;;17.08;100.00;99748.84;4913331;28;20357;-94
2022/09/06 00:04:05;;;;;;;4.97;4.60;;;;;;;17.07;100.00;99755.34;4933910;28;20241;-92
2022/09/06 00:06:35;;;;;;;5.00;4.50;;;;;;;17.05;100.00;99744.78;4942648;28;20303;-93
2022/09/06 00:09:02;;;;;;;5.03;4.73;;;;;;;17.05;100.00;99733.13;4926916;28;20315;-93
2022/09/06 00:11:29;;;;;;;5.10;4.80;;;;;;;17.04;100.00;99747.72;4939685;29;20313;-92
2022/09/06 00:13:55;;;;;;;5.20;4.90;;;;;;;17.05;100.00;99741.25;4931167;28;20257;-93
2022/09/06 00:16:23;;;;;;;5.97;5.40;;;;;;;17.06;100.00;99742.88;4915086;29;20277;-93
2022/09/06 00:18:55;;;;;;;4.93;4.50;;;;;;;17.06;100.00;99740.19;4922969;28;20590;-93
2022/09/06 00:21:25;;;;;;;5.60;5.10;;;;;;;17.11;100.00;99737.50;4935581;28;20224;-95
2022/09/06 00:23:52;;;;;;;5.43;5.03;;;;;;;17.11;100.00;99737.50;4921214;28;20256;-94
2022/09/06 00:26:19;;;;;;;5.77;5.37;;;;;;;17.09;100.00;99728.81;4938248;28;20264;-94
2022/09/06 00:28:46;;;;;;;5.80;5.33;;;;;;;17.07;100.00;99731.00;4948542;28;20255;-94
2022/09/06 00:31:13;;;;;;;5.70;5.20;;;;;;;17.07;100.00;99729.09;4936041;28;20221;-94
2022/09/06 00:33:40;;;;;;;5.60;5.20;;;;;;;17.06;100.00;99734.78;4957833;28;20228;-94
2022/09/06 00:36:09;;;;;;;7.30;6.70;;;;;;;17.05;100.00;99735.84;4957336;28;20699;-94
2022/09/06 00:38:37;;;;;;;7.13;6.63;;;;;;;16.99;100.00;99723.34;4921260;29;20751;-94
2022/09/06 00:41:05;;;;;;;7.50;6.90;;;;;;;16.92;100.00;99736.28;4933269;28;20257;-94
2022/09/06 00:43:32;;;;;;;6.90;6.40;;;;;;;16.89;100.00;99736.81;4925543;29;20280;-94
2022/09/06 00:46:00;;;;;;;6.97;6.47;;;;;;;16.87;100.00;99728.13;4941799;28;20620;-94
2022/09/06 00:48:27;;;;;;;7.00;6.50;;;;;;;16.78;100.00;99730.47;4933648;28;20266;-94
2022/09/06 00:50:57;;;;;;;6.90;6.43;;;;;;;16.77;100.00;99736.97;4927472;29;20763;-94
2022/09/06 00:53:24;;;;;;;8.03;7.33;;;;;;;16.77;100.00;99739.66;4932876;28;20248;-93
2022/09/06 00:55:52;;;;;;;7.47;6.77;;;;;;;16.71;100.00;99737.97;4936449;28;20255;-96
2022/09/06 00:58:19;;;;;;;8.03;7.43;;;;;;;16.64;100.00;99731.97;4942382;28;20243;-93
2022/09/06 01:00:46;;;;;;;8.60;7.90;;;;;;;16.61;100.00;99732.50;4933129;29;20232;-94
2022/09/06 01:03:13;;;;;;;8.17;7.57;;;;;;;16.53;100.00;99730.22;4933230;28;20242;-93
2022/09/06 01:05:50;;;;;;;8.13;7.53;;;;;;;16.49;100.00;99723.69;4945006;29;20224;-94
2022/09/06 01:08:39;;;;;;;8.90;8.20;;;;;;;16.47;100.00;99725.84;4952741;28;20239;-94
2022/09/06 01:11:21;;;;;;;9.20;8.50;;;;;;;16.38;100.00;99721.97;4938915;28;20240;-94
2022/09/06 01:13:57;;;;;;;9.00;8.30;;;;;;;16.28;100.00;99722.69;4954528;28;20239;-94
2022/09/06 01:16:30;;;;;;;9.73;9.03;;;;;;;16.25;100.00;99725.88;4941863;28;20240;-94
2022/09/06 01:19:09;;;;;;;10.40;9.60;;;;;;;16.20;100.00;99715.81;4956570;28;20232;-94
2022/09/06 01:22:20;;;;;;;10.77;9.77;;;;;;;16.10;100.00;99718.41;4954461;28;20227;-94
2022/09/06 01:24:47;;;;;;;10.20;9.50;;;;;;;16.09;100.00;99713.28;4938179;28;20238;-93
2022/09/06 01:27:51;;;;;;;10.20;9.50;;;;;;;16.07;100.00;99715.41;4947604;28;20232;-93
2022/09/06 01:30:19;;;;;;;10.50;9.60;;;;;;;15.96;100.00;99711.75;4957264;28;20237;-94
2022/09/06 01:32:55;;;;;;;11.53;10.60;;;;;;;15.94;100.00;99713.91;4939690;28;20259;-94
2022/09/06 01:35:37;;;;;;;12.37;11.27;;;;;;;15.91;100.00;99711.69;4960956;28;20228;-94
2022/09/06 01:38:05;;;;;;;12.63;11.67;;;;;;;15.85;100.00;99708.13;4943805;28;20240;-94
2022/09/06 01:40:35;;;;;;;12.27;11.37;;;;;;;15.83;100.00;99718.38;4942539;28;20260;-94
2022/09/06 01:43:08;;;;;;;12.43;11.43;;;;;;;15.80;100.00;99712.66;4944764;28;20228;-95
2022/09/06 01:46:12;;;;;;;13.23;12.07;;;;;;;15.80;100.00;99716.19;4943162;28;20236;-94
2022/09/06 01:49:21;;;;;;;12.17;11.27;;;;;;;15.73;100.00;99722.81;4909635;28;20663;-95
2022/09/06 01:52:07;;;;;;;12.73;11.63;;;;;;;15.64;100.00;99717.03;4918570;29;20257;-95
2022/09/06 01:55:04;;;;;;;12.27;11.27;;;;;;;15.62;100.00;99716.50;4885408;29;20242;-94
2022/09/06 01:57:39;;;;;;;12.43;11.50;;;;;;;15.56;100.00;99724.75;4921931;28;20232;-95
2022/09/06 02:00:08;;;;;;;13.07;11.87;;;;;;;15.50;100.00;99721.13;4959989;28;20286;-94
2022/09/06 02:02:49;;;;;;;14.53;13.23;;;;;;;15.49;100.00;99718.72;4943926;28;20300;-95
2022/09/06 02:05:26;;;;;;;14.37;13.17;;;;;;;15.36;100.00;99720.69;4952745;29;20247;-94
2022/09/06 02:07:57;;;;;;;13.73;12.63;;;;;;;15.39;100.00;99728.28;4936864;28;20262;-94
2022/09/06 02:10:33;;;;;;;13.00;11.93;;;;;;;15.34;100.00;99714.72;4943773;28;20228;-95
2022/09/06 02:13:01;;;;;;;12.93;11.93;;;;;;;15.29;100.00;99714.66;4928903;28;20232;-94
2022/09/06 02:15:32;;;;;;;13.77;12.67;;;;;;;15.25;100.00;99713.50;4915198;28;20229;-95
2022/09/06 02:18:03;;;;;;;13.70;12.50;;;;;;;15.20;100.00;99705.34;4941341;28;20700;-95
2022/09/06 02:20:32;;;;;;;13.33;12.27;;;;;;;15.18;100.00;99691.25;4952882;28;20233;-94
2022/09/06 02:23:03;;;;;;;13.20;11.90;;;;;;;15.15;100.00;99686.38;4938108;28;20228;-95
2022/09/06 02:25:39;;;;;;;12.70;11.60;;;;;;;15.16;100.00;99689.91;4928670;28;20774;-95
2022/09/06 02:28:06;;;;;;;12.40;11.30;;;;;;;15.16;100.00;99687.19;4933123;29;20725;-95
2022/09/06 02:30:37;;;;;;;13.07;11.97;;;;;;;15.05;100.00;99688.91;4925518;28;20252;-95
2022/09/06 02:33:13;;;;;;;12.60;11.60;;;;;;;15.02;100.00;99685.91;4929012;28;20643;-95
2022/09/06 02:35:48;;;;;;;13.13;12.03;;;;;;;15.00;100.00;99688.84;4943310;28;20235;-95
2022/09/06 02:38:16;;;;;;;12.87;11.87;;;;;;;14.91;100.00;99687.63;4908966;29;20335;-95
2022/09/06 02:40:43;;;;;;;12.70;11.70;;;;;;;14.88;100.00;99690.81;4936792;28;20346;-95
2022/09/06 02:43:10;;;;;;;12.23;11.33;;;;;;;14.95;100.00;99694.16;4945464;29;20249;-95
2022/09/06 02:45:37;;;;;;;11.77;10.80;;;;;;;14.86;100.00;99690.22;4936994;28;20237;-95
2022/09/06 02:48:04;;;;;;;12.40;11.40;;;;;;;14.84;100.00;99692.34;4926827;28;20228;-96
2022/09/06 02:50:31;;;;;;;11.93;11.03;;;;;;;14.78;100.00;99686.09;4944012;28;20283;-95
2022/09/06 02:53:05;;;;;;;12.33;11.40;;;;;;;14.79;100.00;99687.69;4948475;28;20236;-95
2022/09/06 02:55:32;;;;;;;12.57;11.57;;;;;;;14.75;100.00;99689.25;4944113;28;20236;-95
2022/09/06 02:57:59;;;;;;;12.47;11.43;;;;;;;14.76;100.00;99685.50;4927985;28;20255;-95
2022/09/06 03:00:26;;;;;;;12.20;11.20;;;;;;;14.72;100.00;99686.22;4936150;28;20220;-95
2022/09/06 03:02:54;;;;;;;12.30;11.30;;;;;;;14.66;100.00;99687.19;4930737;28;20320;-96
2022/09/06 03:05:22;;;;;;;12.07;11.17;;;;;;;14.60;100.00;99689.03;4943999;28;20955;-96
2022/09/06 03:07:49;;;;;;;12.40;11.30;;;;;;;14.54;100.00;99690.81;4944960;28;20249;-95
2022/09/06 03:10:17;;;;;;;12.03;11.13;;;;;;;14.52;100.00;99687.53;4938336;28;20855;-96
2022/09/06 03:12:44;;;;;;;13.20;12.10;;;;;;;14.56;100.00;99695.16;4938425;28;20459;-96
2022/09/06 03:15:12;;;;;;;11.47;10.47;;;;;;;14.51;100.00;99696.66;4944683;28;20327;-96
2022/09/06 03:17:41;;;;;;;12.40;11.40;;;;;;;14.50;100.00;99700.44;4933040;28;20248;-96
2022/09/06 03:20:14;;;;;;;12.87;11.67;;;;;;;14.45;100.00;99699.53;4974252;28;20232;-96
2022/09/06 03:22:41;;;;;;;11.43;10.43;;;;;;;14.40;100.00;99694.06;4940804;28;20272;-96
2022/09/06 03:25:09;;;;;;;11.90;10.90;;;;;;;14.39;100.00;99697.81;4941092;28;20256;-96
2022/09/06 03:27:36;;;;;;;11.90;11.00;;;;;;;14.42;100.00;99697.31;4934054;29;20264;-96
2022/09/06 03:30:04;;;;;;;11.23;10.33;;;;;;;14.35;100.00;99696.63;4948160;28;20229;-96
2022/09/06 03:32:31;;;;;;;11.23;10.33;;;;;;;14.32;100.00;99697.94;4934178;28;20243;-96
2022/09/06 03:34:58;;;;;;;11.60;10.43;;;;;;;14.32;100.00;99697.13;4933417;29;20240;-96
2022/09/06 03:37:25;;;;;;;10.63;9.83;;;;;;;14.29;100.00;99697.59;4935165;29;20224;-96
2022/09/06 03:39:52;;;;;;;10.57;9.73;;;;;;;14.29;100.00;99692.19;4940020;28;20228;-96
2022/09/06 03:42:19;;;;;;;10.47;9.67;;;;;;;14.23;100.00;99693.19;4911033;28;20770;-96
2022/09/06 03:44:46;;;;;;;11.13;10.23;;;;;;;14.22;100.00;99694.22;4922362;29;20256;-96
2022/09/06 03:47:14;;;;;;;10.83;9.97;;;;;;;14.20;100.00;99690.94;4932042;29;20247;-95
2022/09/06 03:49:45;;;;;;;10.83;9.83;;;;;;;14.16;100.00;99685.22;4946625;28;20291;-96
2022/09/06 03:52:12;;;;;;;10.60;9.70;;;;;;;14.12;100.00;99686.78;4939848;28;20252;-96
2022/09/06 03:54:39;;;;;;;10.53;9.63;;;;;;;14.11;100.00;99688.66;4939610;29;20283;-96
2022/09/06 03:57:06;;;;;;;9.53;8.73;;;;;;;14.10;100.00;99683.50;4919133;28;20240;-96
2022/09/06 03:59:33;;;;;;;10.60;9.70;;;;;;;14.07;100.00;99684.81;4945852;28;20233;-96
2022/09/06 04:02:00;;;;;;;9.67;8.87;;;;;;;14.04;100.00;99684.47;4925455;28;20239;-96
2022/09/06 04:04:27;;;;;;;10.53;9.67;;;;;;;14.03;100.00;99680.97;4939909;29;20229;-96
2022/09/06 04:06:54;;;;;;;10.43;9.63;;;;;;;14.06;100.00;99680.47;4944217;28;20773;-96
2022/09/06 04:09:20;;;;;;;10.83;9.83;;;;;;;14.05;100.00;99683.41;4906367;29;20280;-96
2022/09/06 04:11:47;;;;;;;10.60;9.83;;;;;;;14.01;100.00;99684.94;4919355;28;20228;-96
2022/09/06 04:14:14;;;;;;;10.23;9.33;;;;;;;14.00;100.00;99696.75;4941796;28;20232;-96
2022/09/06 04:16:41;;;;;;;11.80;10.27;;;;;;;13.97;100.00;99689.19;4935310;28;20266;-96
2022/09/06 04:19:07;;;;;;;10.40;9.50;;;;;;;13.94;100.00;99693.19;4925345;28;20273;-96
2022/09/06 04:21:34;;;;;;;10.90;10.03;;;;;;;13.93;100.00;99691.53;4922330;28;20254;-96
2022/09/06 04:24:01;;;;;;;11.03;10.13;;;;;;;13.94;100.00;99703.13;4930751;29;20707;-92
2022/09/06 04:26:28;;;;;;;10.07;9.17;;;;;;;13.90;100.00;99683.13;4937401;28;20235;-96
2022/09/06 04:28:55;;;;;;;10.47;9.67;;;;;;;13.92;100.00;99689.06;4926693;28;20239;-96
2022/09/06 04:31:22;;;;;;;9.63;8.93;;;;;;;13.93;100.00;99679.94;4939807;28;20291;-95
2022/09/06 04:33:49;;;;;;;10.63;9.73;;;;;;;13.94;100.00;99687.78;4933095;28;20240;-96
2022/09/06 04:36:15;;;;;;;10.80;9.97;;;;;;;13.97;100.00;99686.47;4918100;28;20233;-96
2022/09/06 04:38:43;;;;;;;10.30;9.50;;;;;;;14.01;100.00;99688.44;4937297;28;20262;-96
2022/09/06 04:41:12;;;;;;;10.90;10.00;;;;;;;14.04;100.00;99687.97;4933620;29;20229;-96
2022/09/06 04:43:38;;;;;;;10.40;9.60;;;;;;;14.06;100.00;99690.44;4921333;29;20262;-96
2022/09/06 04:46:10;;;;;;;10.47;9.60;;;;;;;14.13;100.00;99690.28;4904666;29;20244;-96
2022/09/06 04:48:37;;;;;;;10.23;9.27;;;;;;;14.18;100.00;99687.69;4915313;29;20243;-96
2022/09/06 04:51:04;;;;;;;10.87;9.97;;;;;;;14.23;100.00;99690.47;4924113;29;20228;-96
2022/09/06 04:53:30;;;;;;;10.70;9.80;;;;;;;14.26;100.00;99696.19;4934401;29;20684;-96
2022/09/06 04:55:57;;;;;;;10.57;9.67;;;;;;;14.28;100.00;99687.84;4938113;29;20264;-96
2022/09/06 04:58:24;;;;;;;10.23;9.33;;;;;;;14.37;100.00;99703.41;4936938;29;20263;-96
2022/09/06 05:00:51;;;;;;;10.07;9.10;;;;;;;14.45;100.00;99700.34;4936712;29;20702;-95
2022/09/06 05:03:18;;;;;;;10.47;9.47;;;;;;;14.57;100.00;99708.34;4925851;29;20237;-95
2022/09/06 05:05:45;;;;;;;9.97;9.17;;;;;;;14.64;100.00;99708.22;4957464;29;20292;-96
2022/09/06 05:08:11;;;;;;;10.20;9.40;;;;;;;14.71;100.00;99704.28;4954555;28;20708;-96
2022/09/06 05:10:38;;;;;;;10.83;9.80;;;;;;;14.83;100.00;99699.66;4919876;29;20324;-96
2022/09/06 05:13:05;;;;;;;10.37;9.57;;;;;;;14.91;100.00;99696.53;4910256;29;20237;-96
2022/09/06 05:15:32;;;;;;;10.53;9.63;;;;;;;15.04;100.00;99708.84;4943072;29;20724;-96
2022/09/06 05:18:04;;;;;;;10.53;9.73;;;;;;;15.15;100.00;99718.75;4932377;29;20236;-96
2022/09/06 05:20:30;;;;;;;9.63;8.87;;;;;;;15.28;100.00;99718.41;4922863;29;20229;-96
2022/09/06 05:22:57;;;;;;;10.50;9.60;;;;;;;15.41;100.00;99720.75;4924336;29;20261;-96
2022/09/06 05:25:24;;;;;;;10.27;9.47;;;;;;;15.57;100.00;99716.41;4939195;29;20243;-96
2022/09/06 05:27:51;;;;;;;10.20;9.23;;;;;;;15.71;100.00;99716.88;4923172;29;20715;-96
2022/09/06 05:30:18;;;;;;;10.30;9.60;;;;;;;15.89;100.00;99715.72;4919198;29;20903;-96
2022/09/06 05:32:45;;;;;;;9.77;8.97;;;;;;;16.02;100.00;99713.47;4922308;28;20287;-96
2022/09/06 05:35:12;;;;;;;10.17;9.37;;;;;;;16.18;100.00;99707.16;4939280;29;20284;-96
2022/09/06 05:37:38;;;;;;;9.83;9.13;;;;;;;16.31;100.00;99711.34;4939630;29;20245;-96
2022/09/06 05:40:06;;;;;;;10.00;9.30;;;;;;;16.45;100.00;99719.84;4948761;28;20230;-96
2022/09/06 05:42:33;;;;;;;10.07;9.27;;;;;;;16.59;100.00;99724.63;4941769;28;20710;-96
2022/09/06 05:45:00;;;;;;;9.40;8.70;;;;;;;16.73;100.00;99731.25;4939039;29;20261;-96
2022/09/06 05:47:27;;;;;;;9.23;8.50;;;;;;;16.85;100.00;99736.47;4939086;29;20751;-96
2022/09/06 05:49:54;;;;;;;9.73;8.93;;;;;;;16.96;100.00;99735.50;4904250;29;20757;-96
2022/09/06 05:52:20;;;;;;;9.80;8.93;;;;;;;17.10;100.00;99730.47;4929051;29;20241;-96
2022/09/06 05:54:47;;;;;;;10.17;9.27;;;;;;;17.26;100.00;99731.41;4924154;29;20241;-96
2022/09/06 05:57:14;;;;;;;11.73;10.03;;;;;;;17.42;100.00;99727.69;4923235;29;20249;-96
2022/09/06 05:59:41;;;;;;;11.07;9.97;;;;;;;17.58;100.00;99732.13;4923304;29;21001;-96
2022/09/06 06:02:07;;;;;;;10.87;9.97;;;;;;;17.70;100.00;99727.34;4922485;29;20238;-96
2022/09/06 06:04:34;;;;;;;11.50;10.40;;;;;;;17.65;100.00;99724.59;4938399;29;20233;-96
2022/09/06 06:07:01;;;;;;;11.43;10.53;;;;;;;17.76;100.00;99726.31;4935999;29;20296;-96
2022/09/06 06:09:28;;;;;;;10.77;9.77;;;;;;;17.89;100.00;99733.94;4916726;29;20269;-96
2022/09/06 06:11:55;;;;;;;11.60;10.70;;;;;;;18.03;100.00;99726.94;4938129;29;20288;-96
2022/09/06 06:14:23;;;;;;;10.83;10.03;;;;;;;18.17;100.00;99729.16;4903507;29;20234;-96
2022/09/06 06:16:49;;;;;;;12.13;10.93;;;;;;;17.95;100.00;99729.34;4921619;29;20261;-96
2022/09/06 06:19:16;;;;;;;12.43;11.30;;;;;;;18.18;100.00;99720.75;4925152;29;20242;-96
2022/09/06 06:21:43;;;;;;;11.33;10.43;;;;;;;18.34;100.00;99722.41;4920750;29;20290;-96
2022/09/06 06:24:10;;;;;;;11.53;10.60;;;;;;;18.34;100.00;99735.97;4917733;29;20687;-96
2022/09/06 06:26:37;;;;;;;11.03;10.17;;;;;;;18.39;100.00;99725.13;4923482;29;20233;-96
2022/09/06 06:29:06;;;;;;;12.30;11.30;;;;;;;18.28;100.00;99726.22;4904495;29;20233;-96
2022/09/06 06:31:35;;;;;;;12.13;11.13;;;;;;;18.20;100.00;99724.00;4912501;29;20242;-96
2022/09/06 06:34:02;;;;;;;11.80;10.83;;;;;;;18.54;100.00;99723.56;4935955;28;20621;-96
2022/09/06 06:36:32;;;;;;;12.43;11.43;;;;;;;18.46;100.00;99717.56;4913205;29;20287;-96
2022/09/06 06:39:01;;;;;;;11.87;10.77;;;;;;;18.70;100.00;99723.34;4921085;29;20234;-96
2022/09/06 06:41:30;;;;;;;11.47;10.57;;;;;;;18.85;100.00;99714.34;4926476;29;20246;-96
2022/09/06 06:43:59;;;;;;;12.20;11.10;;;;;;;19.07;100.00;99733.09;4918138;29;20239;-96
2022/09/06 06:46:32;;;;;;;11.23;10.23;;;;;;;19.19;100.00;99726.28;4937087;29;20231;-96
2022/09/06 06:48:59;;;;;;;12.13;10.90;;;;;;;19.28;100.00;99718.41;4918528;29;20944;-96
2022/09/06 06:51:29;;;;;;;11.50;10.40;;;;;;;19.39;100.00;99724.63;4908586;29;20247;-96
2022/09/06 06:53:56;;;;;;;11.60;10.60;;;;;;;19.50;100.00;99729.81;4913753;29;20272;-96
2022/09/06 06:56:28;;;;;;;13.23;10.67;;;;;;;19.57;100.00;99733.06;4922247;29;20898;-96
2022/09/06 06:58:58;;;;;;;10.87;9.70;;;;;;;19.72;100.00;99730.28;4909651;29;20237;-96
2022/09/06 07:01:26;;;;;;;12.30;10.67;;;;;;;19.88;100.00;99732.94;4912947;29;20232;-96
2022/09/06 07:03:53;;;;;;;14.10;10.87;;;;;;;19.93;100.00;99732.91;4935295;29;20232;-96
2022/09/06 07:06:21;;;;;;;15.37;11.10;;;;;;;20.04;100.00;99726.34;4919065;29;20242;-96
2022/09/06 07:09:08;;;;;;;14.63;9.60;;;;;;;20.19;100.00;99726.28;4923091;29;20232;-96
2022/09/06 07:11:35;;;;;;;10.77;9.73;;;;;;;20.23;100.00;99720.00;4914534;29;20256;-96
2022/09/06 07:14:02;;;;;;;11.10;9.90;;;;;;;20.40;100.00;99721.56;4914730;29;20707;-95
2022/09/06 07:16:29;;;;;;;11.37;10.20;;;;;;;20.52;100.00;99722.03;4916581;29;20261;-96
2022/09/06 07:18:56;;;;;;;10.77;9.77;;;;;;;20.63;100.00;99721.69;4904745;29;20255;-96
2022/09/06 07:21:25;;;;;;;13.10;9.63;;;;;;;20.76;100.00;99719.44;4912843;29;20237;-96
2022/09/06 07:24:08;;;;;;;11.17;10.07;;;;;;;20.78;100.00;99734.38;4915596;29;20256;-96
2022/09/06 07:26:36;;;;;;;11.03;9.83;;;;;;;20.58;100.00;99735.31;4916751;29;20247;-96
2022/09/06 07:29:05;;;;;;;11.17;10.17;;;;;;;20.67;100.00;99732.03;4933901;29;20290;-96
2022/09/06 07:31:33;;;;;;;10.50;9.43;;;;;;;20.96;100.00;99730.94;4931063;29;20237;-96
2022/09/06 07:34:20;;;;;;;12.00;10.80;;;;;;;20.74;100.00;99725.16;4920670;29;20245;-96
2022/09/06 07:36:51;;;;;;;14.07;9.97;;;;;;;20.96;100.00;99738.31;4929284;29;20328;-96
2022/09/06 07:39:18;;;;;;;13.40;10.03;;;;;;;21.05;100.00;99742.03;4899222;29;20234;-96
2022/09/06 07:41:45;;;;;;;10.73;9.83;;;;;;;21.13;100.00;99736.03;4903664;29;20235;-96
2022/09/06 07:44:12;;;;;;;10.37;9.37;;;;;;;21.33;100.00;99737.72;4915234;28;20246;-96
2022/09/06 07:46:38;;;;;;;10.90;9.90;;;;;;;21.40;99.64;99738.22;4951927;28;20599;-96
2022/09/06 07:49:05;;;;;;;10.27;9.37;;;;;;;21.55;97.54;99732.63;4938511;29;20236;-96
2022/09/06 07:51:32;;;;;;;11.17;10.20;;;;;;;21.74;96.68;99735.41;4916633;29;20236;-96
2022/09/06 07:54:00;;;;;;;11.73;10.50;;;;;;;21.70;92.59;99737.06;4937339;29;20242;-96
2022/09/06 07:56:46;;;;;;;10.00;9.13;;;;;;;21.83;94.44;99728.22;4917926;29;20696;-96
2022/09/06 07:59:13;;;;;;;10.45;9.60;;;;;;;21.97;92.94;99731.06;4950062;29;20256;-96
2022/09/06 08:01:40;;;;;;;12.13;10.17;;;;;;;22.08;90.18;99727.91;4921072;29;20702;-96
2022/09/06 08:04:12;;;;;;;12.83;9.80;;;;;;;22.23;89.18;99729.63;4911867;29;20373;-96
2022/09/06 08:06:42;;;;;;;11.48;9.93;;;;;;;22.36;88.26;99729.72;4936312;29;20236;-96
2022/09/06 08:09:29;;;;;;;12.60;9.70;;;;;;;22.48;85.11;99728.47;4931098;29;20237;-96
2022/09/06 08:11:56;;;;;;;10.95;9.88;;;;;;;22.49;84.04;99730.88;4934363;28;20237;-96
2022/09/06 08:14:22;;;;;;;11.32;10.13;;;;;;;22.60;84.86;99731.56;4940185;28;20675;-96
2022/09/06 08:16:49;;;;;;;10.90;9.85;;;;;;;22.52;84.08;99726.78;4957083;29;20260;-96
2022/09/06 08:19:17;;;;;;;14.50;10.05;;;;;;;22.64;84.27;99732.59;4920061;29;20250;-96
2022/09/06 08:21:44;;;;;;;12.32;9.63;;;;;;;22.67;83.47;99730.09;4951804;28;20736;-96
2022/09/06 08:24:11;;;;;;;13.48;9.60;;;;;;;22.74;82.93;99724.28;4941446;28;20240;-96
2022/09/06 08:26:39;;;;;;;10.88;9.70;;;;;;;22.79;82.19;99724.19;4905278;29;20709;-96
2022/09/06 08:29:07;;;;;;;13.25;9.68;;;;;;;22.93;80.80;99721.50;4904941;29;20233;-96
2022/09/06 08:31:37;;;;;;;10.88;9.88;;;;;;;23.02;81.38;99728.72;4935905;29;20242;-96
2022/09/06 08:34:04;;;;;;;11.85;10.35;;;;;;;22.72;82.48;99721.03;4946532;28;20230;-96
2022/09/06 08:36:32;;;;;;;10.80;9.73;;;;;;;22.84;81.57;99718.66;4943964;29;20225;-96
2022/09/06 08:39:00;;;;;;;14.93;9.77;;;;;;;22.86;81.33;99712.91;4936928;29;20249;-96
2022/09/06 08:41:50;;;;;;;9.80;9.00;;;;;;;22.88;81.62;99711.47;4915952;28;20241;-96
2022/09/06 08:44:18;;;;;;;10.68;9.27;;;;;;;22.86;82.33;99704.69;4945200;28;20425;-96
2022/09/06 08:47:08;;;;;;;11.65;10.00;;;;;;;23.12;79.43;99709.44;4919446;29;20276;-96
2022/09/06 08:49:41;;;;;;;13.63;9.32;;;;;;;23.23;78.31;99716.34;4918194;29;20729;-96
2022/09/06 08:52:42;;;;;;;9.57;8.57;;;;;;;23.23;78.65;99710.06;4920230;29;20320;-96
2022/09/06 08:55:30;;;;;;;10.52;9.43;;;;;;;23.23;78.45;99713.63;4937512;29;20316;-96
2022/09/06 08:58:10;;;;;;;10.40;9.40;;;;;;;23.31;77.67;99720.28;4922958;29;20366;-96
2022/09/06 09:00:37;;;;;;;9.68;8.70;;;;;;;23.14;82.21;99717.34;4912656;29;20268;-96
2022/09/06 09:03:13;;;;;;;11.65;9.10;;;;;;;23.18;80.68;99710.16;4905315;29;20237;-96
2022/09/06 09:05:46;;;;;;;10.68;8.82;;;;;;;23.31;79.87;99692.97;4921888;29;20238;-96
2022/09/06 09:08:30;;;;;;;11.50;10.25;;;;;;;23.21;78.90;99702.16;4899319;29;20231;-96
2022/09/06 09:11:00;;;;;;;10.55;9.55;;;;;;;22.92;81.96;99704.31;4915844;29;20728;-96
2022/09/06 09:14:12;;;;;;;11.88;9.00;;;;;;;23.30;82.81;99693.25;4929970;29;20242;-96
2022/09/06 09:16:39;;;;;;;10.70;9.70;;;;;;;23.39;78.36;99692.25;4921887;29;20265;-96
2022/09/06 09:19:06;;;;;;;12.45;9.27;;;;;;;23.43;78.54;99692.47;4924675;29;20217;-96
2022/09/06 09:21:35;;;;;;;12.40;9.18;;;;;;;23.49;80.58;99694.84;4915529;29;20229;-96
2022/09/06 09:24:08;;;;;;;10.88;9.75;;;;;;;23.40;77.95;99691.16;4910632;29;20237;-96
2022/09/06 09:26:54;;;;;;;10.20;9.32;;;;;;;23.62;75.54;99691.28;4939043;29;20242;-96
2022/09/06 09:29:20;;;;;;;12.40;9.02;;;;;;;23.92;76.89;99686.31;4913466;29;20230;-96
2022/09/06 09:31:55;;;;;;;9.82;9.00;;;;;;;23.94;73.64;99673.13;4920923;29;20669;-96
2022/09/06 09:34:36;;;;;;;10.18;9.10;;;;;;;24.00;74.52;99667.25;4912083;29;20245;-96
2022/09/06 09:37:11;;;;;;;10.73;9.63;;;;;;;24.05;72.72;99672.59;4920410;29;20227;-96
2022/09/06 09:39:58;;;;;;;12.43;9.45;;;;;;;24.21;72.44;99662.16;4922153;29;20240;-96
2022/09/06 09:42:33;;;;;;;10.82;8.60;;;;;;;24.29;73.16;99664.16;4920768;29;20231;-96
2022/09/06 09:45:01;;;;;;;9.30;8.20;;;;;;;24.47;70.99;99652.22;4935155;29;20323;-96
2022/09/06 09:47:30;;;;;;;9.77;8.30;;;;;;;24.48;72.53;99651.13;4932761;29;20711;-96
2022/09/06 09:49:57;;;;;;;9.68;8.48;;;;;;;24.59;73.36;99642.66;4930229;29;20234;-95
2022/09/06 09:52:29;;;;;;;9.77;8.85;;;;;;;24.30;74.06;99645.81;4932692;29;20233;-95
2022/09/06 09:54:59;;;;;;;8.52;7.78;;;;;;;24.46;74.82;99645.13;4904775;29;20233;-96
2022/09/06 09:57:29;;;;;;;11.65;9.50;;;;;;;24.51;71.59;99647.75;4927627;29;20236;-96
2022/09/06 09:59:59;;;;;;;8.75;7.95;;;;;;;24.88;70.17;99643.03;4928043;29;20245;-96
2022/09/06 10:02:34;;;;;;;8.40;7.55;;;;;;;25.12;68.17;99635.25;4925387;29;20242;-96
2022/09/06 10:05:08;;;;;;;8.85;8.00;;;;;;;25.22;67.14;99636.91;4928246;29;20267;-95
2022/09/06 10:07:42;;;;;;;8.05;7.35;;;;;;;25.43;66.67;99627.81;4926494;29;20239;-96
2022/09/06 10:10:14;;;;;;;8.52;7.75;;;;;;;25.56;66.43;99628.06;4914287;29;20251;-96
2022/09/06 10:12:41;;;;;;;9.20;8.00;;;;;;;25.75;65.43;99623.91;4920490;29;20240;-96
2022/09/06 10:15:10;;;;;;;8.02;7.30;;;;;;;25.91;64.04;99634.41;4909246;29;20291;-96
2022/09/06 10:17:43;;;;;;;8.63;7.30;;;;;;;26.13;63.77;99624.09;4906850;29;20324;-95
2022/09/06 10:20:11;;;;;;;8.48;7.78;;;;;;;26.24;63.25;99627.38;4927540;29;20230;-96
2022/09/06 10:23:03;;;;;;;7.43;6.80;;;;;;;26.37;62.96;99626.38;4907230;29;20238;-96
2022/09/06 10:25:36;;;;;;;8.82;8.02;;;;;;;26.46;62.31;99620.88;4914705;29;20244;-96
2022/09/06 10:28:11;;;;;;;8.88;7.97;;;;;;;26.64;61.75;99633.50;4930372;29;20229;-96
2022/09/06 10:31:10;;;;;;;8.90;8.30;;;;;;;26.54;59.72;99626.41;4906678;29;20605;-96
2022/09/06 10:33:52;;;;;;;8.00;7.30;;;;;;;26.59;60.60;99625.41;4931811;29;20239;-96
2022/09/06 10:36:27;;;;;;;9.23;8.40;;;;;;;26.75;58.62;99615.50;4930093;29;20229;-96
2022/09/06 10:38:59;;;;;;;8.32;7.63;;;;;;;26.86;58.92;99619.56;4917538;29;20221;-95
2022/09/06 10:42:02;;;;;;;8.73;8.10;;;;;;;26.79;59.12;99616.47;4918744;29;20272;-96
2022/09/06 10:44:50;;;;;;;8.88;8.18;;;;;;;26.92;58.44;99615.50;4947221;29;20680;-96
2022/09/06 10:47:17;;;;;;;8.63;8.02;;;;;;;27.07;58.10;99609.47;4945448;29;20221;-96
2022/09/06 10:49:48;;;;;;;8.38;7.78;;;;;;;27.21;57.28;99608.44;4923839;29;20253;-96
2022/09/06 10:52:24;;;;;;;7.82;7.25;;;;;;;27.31;56.70;99606.13;4937848;28;20263;-96
2022/09/06 10:54:52;;;;;;;9.05;8.23;;;;;;;27.35;56.99;99601.59;4925394;29;20319;-96
2022/09/06 10:57:22;;;;;;;7.47;6.97;;;;;;;27.47;56.90;99601.69;4916948;29;20237;-96
2022/09/06 11:00:12;;;;;;;8.63;7.90;;;;;;;27.68;55.84;99599.00;4942545;28;20260;-96
2022/09/06 11:03:00;;;;;;;8.60;7.90;;;;;;;27.88;55.42;99594.66;4906782;29;20238;-96
2022/09/06 11:05:57;;;;;;;9.07;8.20;;;;;;;27.86;54.78;99599.69;4933379;29;20712;-96
2022/09/06 11:08:38;;;;;;;8.02;7.43;;;;;;;27.98;54.14;99594.28;4923826;28;20225;-96
2022/09/06 11:11:23;;;;;;;8.23;7.63;;;;;;;28.13;53.51;99590.13;4916916;29;20339;-95
2022/09/06 11:13:49;;;;;;;8.32;7.63;;;;;;;28.12;53.34;99586.56;4916303;29;20237;-96
2022/09/06 11:16:30;;;;;;;8.40;7.70;;;;;;;28.38;52.87;99589.09;4927769;28;20233;-96
2022/09/06 11:19:08;;;;;;;8.18;7.53;;;;;;;28.23;53.64;99582.25;4929146;29;20233;-96
2022/09/06 11:22:03;;;;;;;8.00;7.50;;;;;;;28.42;51.95;99579.81;4908984;29;20279;-96
2022/09/06 11:24:58;;;;;;;8.82;8.23;;;;;;;27.99;52.80;99577.41;4947833;28;20247;-96
2022/09/06 11:27:33;;;;;;;7.88;7.25;;;;;;;28.15;53.45;99576.81;4933814;29;20288;-96
2022/09/06 11:30:02;;;;;;;7.45;6.90;;;;;;;28.33;53.50;99570.00;4927979;29;20229;-95
2022/09/06 11:32:33;;;;;;;8.13;7.53;;;;;;;28.38;52.00;99572.56;4918760;29;20324;-95
2022/09/06 11:35:06;;;;;;;7.82;7.22;;;;;;;28.57;51.63;99567.34;4936812;28;20755;-96
2022/09/06 11:37:38;;;;;;;7.50;6.90;;;;;;;28.77;51.39;99562.94;4942879;28;20233;-95
2022/09/06 11:40:26;;;;;;;8.25;7.43;;;;;;;29.00;50.01;99569.66;4938220;28;20240;-95